Time;durP1;ratioP1;P1;durP2;ratioP2;P2;SDS_P1;SDS_P2;PMS_P1;PMS_P2;Temp;Humidity;BMP_temperature;BMP_pressure;BME280_temperature;BME280_humidity;BME280_pressure;Samples;Min_cycle;Max_cycle;Signal;HPM_P1;HPM_P2
2023/06/05 00:02:03;;;;;;;5.67;4.07;;;13.90;1.00;;;;;;5120211;28;20494;-63
2023/06/05 00:04:30;;;;;;;5.37;3.90;;;13.80;21.60;;;;;;5120404;28;20486;-63
2023/06/05 00:06:57;;;;;;;8.23;3.80;;;13.80;74.40;;;;;;5120618;28;20469;-64
2023/06/05 00:09:25;;;;;;;4.60;3.60;;;13.80;99.90;;;;;;5120485;28;20795;-63
2023/06/05 00:11:54;;;;;;;6.00;3.90;;;13.80;99.90;;;;;;5118745;28;20465;-63
2023/06/05 00:14:21;;;;;;;6.47;3.57;;;13.70;99.90;;;;;;5120334;28;20818;-63
2023/06/05 00:16:49;;;;;;;6.20;3.60;;;13.70;99.90;;;;;;5120405;28;20939;-63
2023/06/05 00:19:16;;;;;;;5.23;3.47;;;13.70;99.90;;;;;;5120358;28;20459;-62
2023/06/05 00:21:44;;;;;;;6.30;3.80;;;13.60;99.90;;;;;;5119893;28;20495;-64
2023/06/05 00:24:11;;;;;;;7.10;3.67;;;13.60;99.90;;;;;;5120271;28;20456;-63
2023/06/05 00:26:38;;;;;;;5.20;3.77;;;13.60;99.90;;;;;;5120109;28;20463;-63
2023/06/05 00:29:06;;;;;;;4.13;3.23;;;13.60;1.00;;;;;;5119244;28;20511;-64
2023/06/05 00:31:34;;;;;;;3.90;3.40;;;13.50;1.00;;;;;;5119550;28;20464;-63
2023/06/05 00:34:01;;;;;;;5.10;3.60;;;13.50;1.00;;;;;;5120087;28;20485;-63
2023/06/05 00:36:28;;;;;;;4.97;3.60;;;13.50;1.00;;;;;;5119813;28;20509;-64
2023/06/05 00:38:56;;;;;;;3.80;3.27;;;13.50;1.00;;;;;;5120061;28;20877;-63
2023/06/05 00:41:23;;;;;;;8.60;4.13;;;13.40;1.00;;;;;;5119955;28;20466;-63
2023/06/05 00:43:50;;;;;;;5.63;4.00;;;13.40;1.00;;;;;;5119716;28;20895;-63
2023/06/05 00:46:20;;;;;;;4.57;3.83;;;13.40;1.00;;;;;;5119119;28;20460;-63
2023/06/05 00:48:48;;;;;;;6.77;4.67;;;13.30;14.90;;;;;;5118018;28;20601;-63
2023/06/05 00:51:15;;;;;;;5.73;4.10;;;13.30;75.60;;;;;;5119795;28;20881;-63
2023/06/05 00:53:45;;;;;;;4.67;3.40;;;13.30;99.90;;;;;;5119158;28;20562;-64
2023/06/05 00:56:13;;;;;;;5.47;3.93;;;13.20;99.90;;;;;;5119079;28;20463;-64
2023/06/05 00:58:40;;;;;;;7.40;4.20;;;13.20;99.90;;;;;;5116361;28;20463;-64
2023/06/05 01:01:11;;;;;;;4.40;3.53;;;13.20;99.90;;;;;;5118497;28;20459;-63
2023/06/05 01:03:40;;;;;;;5.47;4.10;;;13.10;99.90;;;;;;5116643;28;20468;-63
2023/06/05 01:06:07;;;;;;;6.87;4.33;;;13.10;99.90;;;;;;5117202;28;20460;-63
2023/06/05 01:08:38;;;;;;;5.77;4.47;;;13.10;60.00;;;;;;5115887;28;21539;-63
2023/06/05 01:11:11;;;;;;;5.37;3.57;;;13.00;99.90;;;;;;5108935;28;20516;-63
2023/06/05 01:13:45;;;;;;;4.40;3.73;;;13.00;99.90;;;;;;5116986;28;20471;-63
2023/06/05 01:16:14;;;;;;;8.17;4.33;;;12.90;99.90;;;;;;5118238;28;20764;-63
2023/06/05 01:18:45;;;;;;;7.27;4.40;;;12.90;99.90;;;;;;5118939;28;20459;-63
2023/06/05 01:21:16;;;;;;;5.40;4.07;;;12.90;99.90;;;;;;5118836;28;20904;-63
2023/06/05 01:23:45;;;;;;;6.50;4.37;;;12.90;99.90;;;;;;5118477;28;20465;-63
2023/06/05 01:26:19;;;;;;;4.73;4.10;;;12.90;99.90;;;;;;5118699;28;20755;-63
2023/06/05 01:28:50;;;;;;;4.47;4.07;;;12.90;99.90;;;;;;5118837;28;20487;-63
2023/06/05 01:31:21;;;;;;;7.87;3.63;;;12.90;99.90;;;;;;5118791;28;20459;-63
2023/06/05 01:33:56;;;;;;;5.43;4.40;;;12.80;99.90;;;;;;5118184;28;20466;-63
2023/06/05 01:36:24;;;;;;;4.30;3.83;;;12.80;99.90;;;;;;5118576;28;20541;-63
2023/06/05 01:38:56;;;;;;;7.00;4.63;;;12.70;99.90;;;;;;5118706;28;20456;-63
2023/06/05 01:41:24;;;;;;;5.23;3.90;;;12.70;99.90;;;;;;5116372;28;20472;-63
2023/06/05 01:43:52;;;;;;;5.80;4.57;;;12.70;99.90;;;;;;5116545;28;20495;-63
2023/06/05 01:46:23;;;;;;;8.13;4.47;;;12.60;99.90;;;;;;5117049;28;20472;-63
2023/06/05 01:48:52;;;;;;;5.47;4.73;;;12.50;99.90;;;;;;5118432;28;20536;-63
2023/06/05 01:51:19;;;;;;;5.70;4.60;;;12.50;99.90;;;;;;5116389;28;20499;-63
2023/06/05 01:53:48;;;;;;;6.00;4.70;;;12.50;99.90;;;;;;5118074;28;20537;-63
2023/06/05 01:56:19;;;;;;;4.97;4.10;;;12.40;99.90;;;;;;5103660;28;20473;-63
2023/06/05 01:58:48;;;;;;;7.43;4.43;;;12.40;99.90;;;;;;5098128;28;20740;-63
2023/06/05 02:01:16;;;;;;;6.63;4.83;;;12.40;99.90;;;;;;5097183;28;20474;-63
2023/06/05 02:03:47;;;;;;;9.00;5.37;;;12.30;99.90;;;;;;5097381;28;20468;-63
2023/06/05 02:06:16;;;;;;;7.03;4.87;;;12.30;1.00;;;;;;5097471;28;20470;-63
2023/06/05 02:08:43;;;;;;;6.70;4.57;;;12.30;1.00;;;;;;5097639;28;20541;-63
2023/06/05 02:11:11;;;;;;;4.70;4.10;;;12.20;1.00;;;;;;5097554;28;20555;-63
2023/06/05 02:13:41;;;;;;;6.67;4.43;;;12.20;1.00;;;;;;5097662;28;20877;-63
2023/06/05 02:16:11;;;;;;;5.70;5.00;;;12.10;1.00;;;;;;5097714;28;20763;-63
2023/06/05 02:18:38;;;;;;;4.80;4.30;;;12.10;1.00;;;;;;5097936;28;20953;-63
2023/06/05 02:21:06;;;;;;;6.50;4.70;;;12.00;1.00;;;;;;5096829;28;20780;-63
2023/06/05 02:23:33;;;;;;;5.50;4.63;;;12.10;1.00;;;;;;5096901;28;20460;-63
2023/06/05 02:26:00;;;;;;;5.97;4.57;;;12.00;1.00;;;;;;5097107;28;20471;-63
2023/06/05 02:28:28;;;;;;;7.60;4.83;;;12.00;1.00;;;;;;5101815;28;20529;-63
2023/06/05 02:30:57;;;;;;;6.63;4.33;;;12.00;1.00;;;;;;5117920;28;20493;-63
2023/06/05 02:33:24;;;;;;;7.40;4.50;;;11.90;1.00;;;;;;5116572;28;20468;-63
2023/06/05 02:35:51;;;;;;;7.13;5.07;;;11.90;1.00;;;;;;5116625;28;20523;-63
2023/06/05 02:38:19;;;;;;;7.83;4.80;;;11.90;1.00;;;;;;5117370;28;20554;-63
2023/06/05 02:40:46;;;;;;;6.30;5.33;;;11.80;1.00;;;;;;5117648;28;20463;-63
2023/06/05 02:43:14;;;;;;;5.73;4.50;;;11.80;1.00;;;;;;5117643;28;20455;-63
2023/06/05 02:45:41;;;;;;;5.97;5.30;;;11.80;1.00;;;;;;5117229;28;20474;-63
2023/06/05 02:48:10;;;;;;;7.20;5.40;;;11.80;1.00;;;;;;5117329;28;20466;-63
2023/06/05 02:50:37;;;;;;;7.03;4.90;;;11.70;1.00;;;;;;5117768;28;20459;-63
2023/06/05 02:53:04;;;;;;;10.43;4.83;;;11.70;1.00;;;;;;5117378;28;20460;-63
2023/06/05 02:55:32;;;;;;;7.63;5.40;;;11.60;1.00;;;;;;5116909;28;20466;-63
2023/06/05 02:57:59;;;;;;;8.10;5.00;;;11.60;1.00;;;;;;5117580;28;20766;-63
2023/06/05 03:00:26;;;;;;;5.43;4.77;;;11.60;1.00;;;;;;5117224;28;20470;-63
2023/06/05 03:02:55;;;;;;;5.90;5.30;;;11.50;1.00;;;;;;5116748;28;20494;-63
2023/06/05 03:05:24;;;;;;;8.53;4.63;;;11.40;1.00;;;;;;5117396;28;20506;-63
2023/06/05 03:07:54;;;;;;;7.23;5.00;;;11.50;4.40;;;;;;5117251;28;20458;-64
2023/06/05 03:10:21;;;;;;;17.23;5.63;;;11.40;1.00;;;;;;5117323;28;20492;-63
2023/06/05 03:12:48;;;;;;;6.57;5.00;;;11.40;33.80;;;;;;5117257;28;20508;-63
2023/06/05 03:15:17;;;;;;;7.47;4.90;;;11.30;29.70;;;;;;5117628;28;20553;-63
2023/06/05 03:17:45;;;;;;;9.37;5.57;;;11.30;85.90;;;;;;5117354;28;20915;-63
2023/06/05 03:20:12;;;;;;;6.00;5.40;;;11.20;56.60;;;;;;5116940;28;20561;-64
2023/06/05 03:22:41;;;;;;;7.80;5.53;;;11.20;99.90;;;;;;5117187;28;20876;-63
2023/06/05 03:25:09;;;;;;;5.93;5.07;;;11.20;99.90;;;;;;5117161;28;20459;-64
2023/06/05 03:27:37;;;;;;;8.13;5.80;;;11.20;99.90;;;;;;5116762;28;20463;-63
2023/06/05 03:30:04;;;;;;;7.00;5.50;;;11.20;99.90;;;;;;5117187;28;20514;-64
2023/06/05 03:32:32;;;;;;;7.47;6.70;;;11.20;99.90;;;;;;5116909;28;20482;-63
2023/06/05 03:34:59;;;;;;;6.53;5.50;;;11.10;99.90;;;;;;5117831;28;20459;-57
2023/06/05 03:37:26;;;;;;;7.30;5.67;;;11.10;99.90;;;;;;5117160;28;20465;-58
2023/06/05 03:39:55;;;;;;;6.63;5.93;;;11.10;99.90;;;;;;5116669;28;20459;-57
2023/06/05 03:42:22;;;;;;;8.37;6.77;;;11.10;99.90;;;;;;5116628;28;20455;-58
2023/06/05 03:44:49;;;;;;;10.60;5.37;;;11.00;99.90;;;;;;5116819;28;20463;-58
2023/06/05 03:47:16;;;;;;;7.53;5.20;;;11.10;99.90;;;;;;5120540;28;20744;-57
2023/06/05 03:49:45;;;;;;;6.20;5.27;;;11.00;99.90;;;;;;5119061;28;20493;-56
2023/06/05 03:52:15;;;;;;;7.63;6.30;;;11.00;99.90;;;;;;5120312;28;20434;-57
2023/06/05 03:54:44;;;;;;;7.17;6.40;;;11.10;99.90;;;;;;5119818;28;20568;-58
2023/06/05 03:57:14;;;;;;;8.07;6.50;;;11.00;99.90;;;;;;5119895;28;20768;-58
2023/06/05 03:59:42;;;;;;;8.07;5.97;;;11.00;99.90;;;;;;5119315;28;20509;-57
2023/06/05 04:02:09;;;;;;;9.17;6.73;;;11.10;99.90;;;;;;5119733;28;20493;-58
2023/06/05 04:04:36;;;;;;;7.10;6.40;;;11.10;99.90;;;;;;5120573;27;20463;-57
2023/06/05 04:07:03;;;;;;;10.17;6.27;;;11.10;99.90;;;;;;5120242;28;20566;-57
2023/06/05 04:09:31;;;;;;;8.07;6.23;;;11.10;99.90;;;;;;5117944;28;20495;-56
2023/06/05 04:11:58;;;;;;;7.60;5.73;;;11.10;99.90;;;;;;5119034;28;20858;-58
2023/06/05 04:14:27;;;;;;;9.20;6.00;;;11.10;99.90;;;;;;5118211;28;20806;-57
2023/06/05 04:16:54;;;;;;;10.23;6.27;;;11.10;99.90;;;;;;5118481;28;20456;-57
2023/06/05 04:19:21;;;;;;;9.23;6.03;;;11.10;99.90;;;;;;5118403;28;20791;-57
2023/06/05 04:21:48;;;;;;;7.80;6.20;;;11.10;99.90;;;;;;5118269;28;20463;-57
2023/06/05 04:24:15;;;;;;;11.23;6.73;;;11.10;99.90;;;;;;5117763;28;20482;-58
2023/06/05 04:26:42;;;;;;;6.70;5.60;;;11.20;99.90;;;;;;5118246;28;20460;-57
2023/06/05 04:29:13;;;;;;;7.63;6.83;;;11.20;99.90;;;;;;5119370;28;20785;-57
2023/06/05 04:31:43;;;;;;;8.13;6.57;;;11.20;99.90;;;;;;5119422;28;20532;-57
2023/06/05 04:34:10;;;;;;;7.50;6.07;;;11.20;99.90;;;;;;5119841;28;20467;-56
2023/06/05 04:36:38;;;;;;;13.70;7.80;;;11.30;99.90;;;;;;5119422;28;20463;-58
2023/06/05 04:39:07;;;;;;;9.83;7.50;;;11.30;99.90;;;;;;5119549;28;20892;-57
2023/06/05 04:41:35;;;;;;;8.47;6.80;;;11.30;99.90;;;;;;5119440;28;20861;-57
2023/06/05 04:44:02;;;;;;;9.60;7.60;;;11.40;99.90;;;;;;5118916;28;20517;-57
2023/06/05 04:46:30;;;;;;;9.30;7.10;;;11.50;99.90;;;;;;5119380;28;20459;-56
2023/06/05 04:48:58;;;;;;;11.20;7.63;;;11.50;99.90;;;;;;5119426;28;20483;-57
2023/06/05 04:51:25;;;;;;;7.63;6.90;;;11.50;99.90;;;;;;5119317;28;20759;-57
2023/06/05 04:53:53;;;;;;;8.63;7.43;;;11.60;99.90;;;;;;5119250;28;20459;-57
2023/06/05 04:56:22;;;;;;;8.30;7.00;;;11.60;99.90;;;;;;5119230;28;20459;-57
2023/06/05 04:58:50;;;;;;;8.70;7.43;;;11.70;99.90;;;;;;5118139;28;20468;-58
2023/06/05 05:01:17;;;;;;;13.73;7.70;;;11.80;99.90;;;;;;5118964;28;20454;-57
2023/06/05 05:03:48;;;;;;;9.03;7.60;;;11.80;99.90;;;;;;5118888;28;20459;-57
2023/06/05 05:06:18;;;;;;;9.43;8.07;;;11.80;99.90;;;;;;5116543;28;20526;-57
2023/06/05 05:08:46;;;;;;;9.23;7.27;;;11.90;99.90;;;;;;5118000;28;20791;-58
2023/06/05 05:11:13;;;;;;;9.57;7.83;;;12.00;99.90;;;;;;5118949;28;20464;-58
2023/06/05 05:13:42;;;;;;;11.50;7.43;;;12.00;99.90;;;;;;5118549;28;20495;-57
2023/06/05 05:16:10;;;;;;;9.20;7.30;;;12.00;7.50;;;;;;5116014;28;20558;-58
2023/06/05 05:18:40;;;;;;;9.17;7.23;;;12.10;2.30;;;;;;5118218;28;20495;-58
2023/06/05 05:21:08;;;;;;;11.60;7.43;;;12.20;11.70;;;;;;5118319;28;20498;-57
2023/06/05 05:23:36;;;;;;;13.10;8.20;;;12.30;1.00;;;;;;5118962;28;20459;-58
2023/06/05 05:26:04;;;;;;;10.50;7.37;;;12.40;1.00;;;;;;5118598;28;20490;-57
2023/06/05 05:28:31;;;;;;;9.07;7.13;;;12.40;1.00;;;;;;5117995;28;20760;-59
2023/06/05 05:31:00;;;;;;;9.30;7.20;;;12.50;1.00;;;;;;5117654;28;20946;-59
2023/06/05 05:33:27;;;;;;;11.87;7.93;;;12.70;1.00;;;;;;5118505;28;20547;-58
2023/06/05 05:35:54;;;;;;;9.33;7.80;;;12.90;1.00;;;;;;5116646;28;20624;-59
2023/06/05 05:38:21;;;;;;;8.63;7.73;;;13.00;1.00;;;;;;5116305;28;20463;-59
2023/06/05 05:40:50;;;;;;;7.67;6.87;;;13.10;99.90;;;;;;5107894;28;20452;-59
2023/06/05 05:43:18;;;;;;;7.90;7.03;;;13.30;99.90;;;;;;5115035;28;20460;-59
2023/06/05 05:45:45;;;;;;;9.77;7.07;;;13.40;99.90;;;;;;5113936;28;20458;-58
2023/06/05 05:48:12;;;;;;;8.60;7.30;;;13.40;99.90;;;;;;5113959;28;20464;-59
2023/06/05 05:50:41;;;;;;;9.83;6.83;;;13.50;99.90;;;;;;5114215;28;20484;-58
2023/06/05 05:53:08;;;;;;;11.80;7.60;;;13.80;99.90;;;;;;5116050;28;20508;-59
2023/06/05 05:55:35;;;;;;;8.00;7.23;;;14.00;94.50;;;;;;5116183;28;20907;-59
2023/06/05 05:58:04;;;;;;;7.83;6.83;;;14.20;1.00;;;;;;5115373;28;20490;-59
2023/06/05 06:00:31;;;;;;;8.73;7.63;;;14.20;1.00;;;;;;5114627;28;20483;-61
2023/06/05 06:02:59;;;;;;;8.17;7.00;;;14.30;1.00;;;;;;5114496;28;20565;-59
2023/06/05 06:05:26;;;;;;;8.20;6.60;;;14.50;1.00;;;;;;5115783;28;20459;-60
2023/06/05 06:07:53;;;;;;;6.60;5.80;;;14.80;1.00;;;;;;5115957;28;20455;-61
2023/06/05 06:10:20;;;;;;;7.10;6.50;;;15.10;1.00;;;;;;5115250;28;20488;-59
2023/06/05 06:12:47;;;;;;;12.03;7.07;;;15.40;99.90;;;;;;5116324;28;20783;-59
2023/06/05 06:15:16;;;;;;;7.73;6.40;;;15.40;99.90;;;;;;5117932;28;20472;-59
2023/06/05 06:17:44;;;;;;;7.83;6.70;;;15.70;99.90;;;;;;5117981;27;20455;-59
2023/06/05 06:20:13;;;;;;;7.93;6.40;;;15.90;67.80;;;;;;5116601;28;20444;-60
2023/06/05 06:22:41;;;;;;;7.30;6.10;;;15.90;1.00;;;;;;5116369;28;20525;-59
2023/06/05 06:25:10;;;;;;;6.97;6.23;;;15.90;1.00;;;;;;5116638;28;20459;-61
2023/06/05 06:27:38;;;;;;;10.13;7.27;;;16.10;99.90;;;;;;5116682;28;20463;-60
2023/06/05 06:30:07;;;;;;;6.57;5.90;;;16.60;99.90;;;;;;5113136;28;20483;-60
2023/06/05 06:32:35;;;;;;;7.20;6.17;;;16.80;1.00;;;;;;5097180;28;20467;-59
2023/06/05 06:35:03;;;;;;;7.17;6.40;;;17.10;1.00;;;;;;5097395;28;20452;-61
2023/06/05 06:37:31;;;;;;;6.33;5.73;;;17.10;99.90;;;;;;5097066;28;20510;-60
2023/06/05 06:39:58;;;;;;;6.80;6.10;;;17.20;99.90;;;;;;5096380;28;20459;-61
2023/06/05 06:42:26;;;;;;;6.43;5.80;;;17.60;99.90;;;;;;5095467;28;20513;-61
2023/06/05 06:44:55;;;;;;;6.67;5.70;;;17.90;99.90;;;;;;5095861;28;20498;-60
2023/06/05 06:47:23;;;;;;;6.00;5.50;;;18.00;99.90;;;;;;5095456;28;20467;-60
2023/06/05 06:49:51;;;;;;;6.50;5.90;;;18.40;99.90;;;;;;5096033;28;20484;-60
2023/06/05 06:52:20;;;;;;;7.93;4.90;;;18.40;95.80;;;;;;5095271;28;20614;-60
2023/06/05 06:54:47;;;;;;;6.00;5.40;;;18.80;99.90;;;;;;5095934;28;20500;-61
2023/06/05 06:57:14;;;;;;;6.13;5.47;;;18.40;1.00;;;;;;5097234;28;20933;-60
2023/06/05 06:59:41;;;;;;;6.33;5.27;;;18.50;1.00;;;;;;5105212;28;20826;-59
2023/06/05 07:02:13;;;;;;;7.10;6.10;;;18.40;1.00;;;;;;5096205;28;20495;-60
2023/06/05 07:04:42;;;;;;;7.40;6.00;;;18.90;1.00;;;;;;5097267;28;20483;-61
2023/06/05 07:07:12;;;;;;;7.77;5.87;;;19.10;1.00;;;;;;5097350;28;20460;-59
2023/06/05 07:09:39;;;;;;;7.63;5.27;;;19.50;1.00;;;;;;5099512;28;20483;-61
2023/06/05 07:12:08;;;;;;;5.73;4.47;;;19.80;1.00;;;;;;5115905;28;20460;-61
2023/06/05 07:14:36;;;;;;;6.27;4.90;;;19.60;1.00;;;;;;5114845;28;20480;-61
2023/06/05 07:17:03;;;;;;;7.43;5.30;;;19.90;1.00;;;;;;5115751;28;20475;-61
2023/06/05 07:19:32;;;;;;;6.43;5.80;;;20.20;1.00;;;;;;5117013;28;20542;-61
2023/06/05 07:22:01;;;;;;;6.60;5.40;;;20.50;1.00;;;;;;5119734;28;20760;-61
2023/06/05 07:24:30;;;;;;;6.00;4.70;;;20.70;1.00;;;;;;5119800;28;20911;-61
2023/06/05 07:26:58;;;;;;;5.63;4.00;;;21.00;1.00;;;;;;5119808;28;20516;-60
2023/06/05 07:29:26;;;;;;;6.27;5.10;;;20.90;99.90;;;;;;5119550;28;20748;-61
2023/06/05 07:31:54;;;;;;;6.20;4.27;;;20.90;99.90;;;;;;5119323;28;20814;-61
2023/06/05 07:34:22;;;;;;;5.73;4.50;;;20.70;99.90;;;;;;5117726;28;20754;-61
2023/06/05 07:36:51;;;;;;;4.80;4.27;;;21.10;99.90;;;;;;5119136;28;20451;-60
2023/06/05 07:39:20;;;;;;;4.73;4.23;;;21.50;99.90;;;;;;5119356;28;20847;-59
2023/06/05 07:41:48;;;;;;;5.00;4.50;;;21.70;99.90;;;;;;5120512;28;20756;-61
2023/06/05 07:44:18;;;;;;;6.00;5.33;;;21.80;99.90;;;;;;5113614;28;20476;-61
2023/06/05 07:46:47;;;;;;;5.30;4.63;;;21.50;99.90;;;;;;5100569;28;20559;-59
2023/06/05 07:49:15;;;;;;;5.60;4.80;;;21.70;99.90;;;;;;5099248;28;20559;-63
2023/06/05 07:51:43;;;;;;;6.40;4.37;;;21.60;99.90;;;;;;5098991;28;20492;-62
2023/06/05 07:54:12;;;;;;;8.00;4.80;;;21.40;99.90;;;;;;5100148;28;20471;-61
2023/06/05 07:56:39;;;;;;;6.17;4.93;;;21.90;99.90;;;;;;5101882;27;20508;-62
2023/06/05 07:59:09;;;;;;;7.03;4.73;;;22.30;99.90;;;;;;5118935;27;20518;-62
2023/06/05 08:01:38;;;;;;;5.10;4.33;;;22.70;99.90;;;;;;5118758;28;20486;-63
2023/06/05 08:04:05;;;;;;;4.90;4.40;;;22.60;99.90;;;;;;5119303;28;20899;-60
2023/06/05 08:06:33;;;;;;;5.23;4.73;;;22.90;99.90;;;;;;5119910;28;20499;-62
2023/06/05 08:09:01;;;;;;;5.23;4.20;;;23.30;99.90;;;;;;5117556;28;20486;-62
2023/06/05 08:11:29;;;;;;;6.00;4.17;;;23.50;91.30;;;;;;5118065;28;20487;-63
2023/06/05 08:13:56;;;;;;;6.50;4.50;;;22.90;40.20;;;;;;5118045;28;20463;-63
2023/06/05 08:16:25;;;;;;;7.37;4.23;;;23.20;71.30;;;;;;5118466;28;20470;-61
2023/06/05 08:18:52;;;;;;;5.70;4.40;;;23.50;39.60;;;;;;5117549;28;20467;-63
2023/06/05 08:21:20;;;;;;;6.50;4.27;;;23.50;1.00;;;;;;5101253;28;20468;-63
2023/06/05 08:23:47;;;;;;;4.90;4.00;;;23.60;1.00;;;;;;5099296;28;20480;-63
2023/06/05 08:26:14;;;;;;;7.00;4.87;;;23.40;1.00;;;;;;5100266;28;20468;-63
2023/06/05 08:28:42;;;;;;;5.70;4.73;;;23.00;1.00;;;;;;5103554;28;21004;-63
2023/06/05 08:31:10;;;;;;;7.03;4.80;;;23.10;1.00;;;;;;5099659;28;20488;-60
2023/06/05 08:33:39;;;;;;;4.90;4.40;;;23.70;1.00;;;;;;5098420;28;20464;-61
2023/06/05 08:36:06;;;;;;;6.20;4.43;;;24.00;1.00;;;;;;5099250;28;20499;-62
2023/06/05 08:38:35;;;;;;;5.77;5.20;;;24.10;1.00;;;;;;5099165;28;20763;-60
2023/06/05 08:41:05;;;;;;;8.23;5.10;;;24.50;1.00;;;;;;5099341;28;20459;-63
2023/06/05 08:43:32;;;;;;;5.10;4.47;;;24.80;1.00;;;;;;5114982;28;20472;-65
2023/06/05 08:45:59;;;;;;;4.23;3.67;;;25.00;1.00;;;;;;5119748;28;20872;-62
2023/06/05 08:48:27;;;;;;;7.20;5.20;;;25.10;1.00;;;;;;5119531;28;20509;-63
2023/06/05 08:50:57;;;;;;;5.40;4.90;;;25.20;1.00;;;;;;5119540;28;20493;-62
2023/06/05 08:53:26;;;;;;;6.33;4.57;;;25.10;1.00;;;;;;5119612;28;20806;-61
2023/06/05 08:55:55;;;;;;;4.90;4.23;;;24.40;1.00;;;;;;5119311;28;20750;-62
2023/06/05 08:58:23;;;;;;;4.37;3.87;;;24.20;1.00;;;;;;5118688;28;20975;-61
2023/06/05 09:00:50;;;;;;;5.30;4.90;;;24.70;1.00;;;;;;5118744;28;20471;-62
2023/06/05 09:03:19;;;;;;;4.50;4.10;;;25.00;1.00;;;;;;5118950;28;20829;-61
2023/06/05 09:05:48;;;;;;;5.40;4.63;;;25.60;1.00;;;;;;5119486;28;20838;-62
2023/06/05 09:08:17;;;;;;;5.53;4.43;;;26.10;1.00;;;;;;5118156;28;20525;-61
2023/06/05 09:10:45;;;;;;;5.77;5.27;;;26.30;1.00;;;;;;5118711;28;20583;-61
2023/06/05 09:13:12;;;;;;;5.57;4.77;;;26.50;1.00;;;;;;5119310;28;20459;-61
2023/06/05 09:15:39;;;;;;;6.40;5.00;;;26.70;1.00;;;;;;5118790;28;20613;-62
2023/06/05 09:18:09;;;;;;;5.20;4.70;;;26.80;1.00;;;;;;5118890;28;20558;-62
2023/06/05 09:20:37;;;;;;;5.93;5.20;;;26.90;1.00;;;;;;5118430;28;20459;-61
2023/06/05 09:23:06;;;;;;;8.90;4.90;;;27.00;1.00;;;;;;5110300;28;20533;-63
2023/06/05 09:25:48;;;;;;;5.37;4.50;;;26.80;1.00;;;;;;5098296;28;20471;-61
2023/06/05 09:28:16;;;;;;;5.17;4.67;;;26.60;1.00;;;;;;5098451;28;20472;-62
2023/06/05 09:30:57;;;;;;;5.57;4.70;;;26.50;1.00;;;;;;5098601;28;20835;-60
2023/06/05 09:33:24;;;;;;;5.13;4.63;;;27.00;1.00;;;;;;5098654;28;20460;-62
2023/06/05 09:36:05;;;;;;;11.07;5.57;;;27.10;1.00;;;;;;5098170;28;20464;-62
2023/06/05 09:38:33;;;;;;;5.47;5.00;;;27.20;1.00;;;;;;5098579;28;20479;-62
2023/06/05 09:41:06;;;;;;;5.20;4.70;;;27.30;1.00;;;;;;5098492;28;20456;-61
2023/06/05 09:43:33;;;;;;;5.30;4.80;;;26.70;1.00;;;;;;5109954;28;20459;-61
2023/06/05 09:46:06;;;;;;;11.20;5.37;;;26.60;1.00;;;;;;5125964;27;20889;-61
2023/06/05 09:48:33;;;;;;;4.50;4.10;;;26.60;1.00;;;;;;5133568;27;20479;-62
2023/06/05 09:51:10;;;;;;;5.40;4.77;;;27.20;1.00;;;;;;5138628;27;20533;-63
2023/06/05 09:53:41;;;;;;;5.10;4.53;;;26.80;99.90;;;;;;5138449;27;20515;-63
2023/06/05 09:56:12;;;;;;;6.67;4.30;;;26.40;99.90;;;;;;5124090;27;20888;-62
2023/06/05 09:58:42;;;;;;;5.10;4.60;;;26.80;99.90;;;;;;5115796;28;20448;-63
2023/06/05 10:01:10;;;;;;;5.00;4.50;;;27.00;99.90;;;;;;5115973;28;20443;-61
2023/06/05 10:03:40;;;;;;;4.87;4.47;;;27.40;99.90;;;;;;5115442;28;20483;-62
2023/06/05 10:06:08;;;;;;;5.00;4.60;;;26.60;99.90;;;;;;5116450;28;20764;-62
2023/06/05 10:08:36;;;;;;;5.87;4.63;;;26.20;99.90;;;;;;5117542;28;20451;-62
2023/06/05 10:11:04;;;;;;;6.30;5.40;;;27.00;99.90;;;;;;5117638;28;20944;-60
2023/06/05 10:13:33;;;;;;;4.60;4.20;;;27.60;99.90;;;;;;5117204;28;20459;-62
2023/06/05 10:16:01;;;;;;;4.57;4.27;;;27.60;99.90;;;;;;5114920;28;20455;-60
2023/06/05 10:18:28;;;;;;;4.40;4.00;;;27.80;99.90;;;;;;5116610;28;20880;-62
2023/06/05 10:20:57;;;;;;;6.10;4.00;;;27.20;99.90;;;;;;5117231;28;20759;-63
2023/06/05 10:23:25;;;;;;;5.00;4.50;;;27.50;99.90;;;;;;5117199;28;20876;-62
2023/06/05 10:25:56;;;;;;;7.87;3.90;;;28.40;99.90;;;;;;5116490;28;20459;-63
2023/06/05 10:28:42;;;;;;;4.70;4.23;;;28.30;99.90;;;;;;5117424;28;20529;-63
2023/06/05 10:31:31;;;;;;;5.30;3.77;;;26.90;99.90;;;;;;5117638;28;20489;-64
2023/06/05 10:34:22;;;;;;;4.60;4.20;;;27.30;99.90;;;;;;5115472;28;20880;-64
2023/06/05 10:37:21;;;;;;;4.07;3.70;;;27.70;99.90;;;;;;5116525;28;20973;-63
2023/06/05 10:39:49;;;;;;;5.10;4.23;;;28.00;99.90;;;;;;5116291;28;20920;-64
2023/06/05 10:42:24;;;;;;;4.07;3.77;;;27.80;99.90;;;;;;5117437;28;20509;-64
2023/06/05 10:44:53;;;;;;;4.53;4.13;;;28.50;99.90;;;;;;5117563;28;20880;-64
2023/06/05 10:47:52;;;;;;;5.63;4.63;;;28.80;99.90;;;;;;5116831;28;20459;-64
2023/06/05 10:50:27;;;;;;;4.47;4.07;;;28.70;99.90;;;;;;5116765;28;20497;-64
2023/06/05 10:52:57;;;;;;;4.27;3.97;;;28.40;99.90;;;;;;5119746;28;20456;-64
2023/06/05 10:55:26;;;;;;;4.33;3.93;;;28.90;99.90;;;;;;5122273;28;20458;-64
2023/06/05 10:58:08;;;;;;;3.80;3.57;;;29.30;99.90;;;;;;5123920;28;20455;-64
2023/06/05 11:00:38;;;;;;;4.30;3.77;;;28.90;99.90;;;;;;5123145;28;20459;-64
2023/06/05 11:03:07;;;;;;;5.67;3.57;;;28.80;99.90;;;;;;5122356;28;20479;-63
2023/06/05 11:05:35;;;;;;;5.77;4.03;;;28.20;99.90;;;;;;5122457;28;20459;-62
2023/06/05 11:08:14;;;;;;;4.13;3.67;;;28.50;99.90;;;;;;5122260;28;20510;-64
2023/06/05 11:11:14;;;;;;;4.37;3.77;;;29.10;99.90;;;;;;5122232;28;20459;-61
2023/06/05 11:13:54;;;;;;;4.47;4.03;;;29.00;99.90;;;;;;5117784;28;20474;-64
2023/06/05 11:16:30;;;;;;;4.17;3.77;;;28.60;99.90;;;;;;5121611;28;20492;-62
2023/06/05 11:19:29;;;;;;;4.83;4.40;;;27.70;99.90;;;;;;5121501;28;20454;-63
2023/06/05 11:22:08;;;;;;;3.70;3.40;;;27.70;1.00;;;;;;5101045;28;20836;-62
2023/06/05 11:24:36;;;;;;;3.90;3.60;;;28.10;99.90;;;;;;5118634;28;20463;-62
2023/06/05 11:27:05;;;;;;;3.73;3.43;;;28.40;99.90;;;;;;5122008;28;20450;-62
2023/06/05 11:29:33;;;;;;;5.73;3.60;;;28.80;99.90;;;;;;5122438;28;20459;-63
2023/06/05 11:32:11;;;;;;;4.60;4.23;;;29.20;99.90;;;;;;5121677;28;20491;-63
2023/06/05 11:34:39;;;;;;;4.40;4.00;;;28.80;99.90;;;;;;5121580;28;20510;-63
2023/06/05 11:37:19;;;;;;;4.73;3.90;;;29.60;99.90;;;;;;5120418;28;20605;-62
2023/06/05 11:39:46;;;;;;;5.30;4.03;;;28.60;99.90;;;;;;5111333;28;20519;-63
2023/06/05 11:42:13;;;;;;;5.07;4.57;;;28.70;99.90;;;;;;5115097;28;20467;-62
2023/06/05 11:44:40;;;;;;;4.13;3.70;;;28.30;99.90;;;;;;5109117;28;20469;-63
2023/06/05 11:47:23;;;;;;;5.13;3.73;;;28.00;99.90;;;;;;5118393;28;20463;-63
2023/06/05 11:49:51;;;;;;;4.10;3.70;;;28.20;99.90;;;;;;5098667;28;20460;-63
2023/06/05 11:52:20;;;;;;;5.00;4.50;;;28.80;99.90;;;;;;5098834;28;20538;-62
2023/06/05 11:55:04;;;;;;;5.33;4.10;;;28.90;99.90;;;;;;5100628;28;20459;-63
2023/06/05 11:57:40;;;;;;;5.87;3.70;;;29.30;99.90;;;;;;5103967;28;20471;-68
2023/06/05 12:00:10;;;;;;;5.70;4.10;;;29.90;99.90;;;;;;5109880;28;20554;-62
2023/06/05 12:02:40;;;;;;;4.13;3.73;;;29.80;99.90;;;;;;5118737;27;20491;-63
2023/06/05 12:05:07;;;;;;;4.77;4.37;;;29.70;99.90;;;;;;5119105;28;20864;-61
2023/06/05 12:07:37;;;;;;;4.43;4.03;;;29.10;99.90;;;;;;5118242;28;20455;-63
2023/06/05 12:10:05;;;;;;;4.37;3.97;;;28.70;99.90;;;;;;5116706;28;20492;-63
2023/06/05 12:12:33;;;;;;;4.40;3.93;;;28.60;99.90;;;;;;5116347;28;20606;-63
2023/06/05 12:15:15;;;;;;;4.53;4.13;;;28.80;99.90;;;;;;5117365;28;20455;-62
2023/06/05 12:17:50;;;;;;;4.70;4.33;;;28.30;99.90;;;;;;5114136;28;20467;-63
2023/06/05 12:20:18;;;;;;;4.93;4.23;;;28.10;99.90;;;;;;5117848;28;20455;-61
2023/06/05 12:22:46;;;;;;;5.30;3.97;;;27.60;99.90;;;;;;5120426;28;20799;-62
2023/06/05 12:25:17;;;;;;;5.93;4.10;;;28.20;99.90;;;;;;5120199;28;20538;-62
2023/06/05 12:27:45;;;;;;;4.30;3.90;;;28.60;99.90;;;;;;5120189;28;20610;-62
2023/06/05 12:30:13;;;;;;;6.37;3.77;;;28.50;99.90;;;;;;5117145;27;20460;-63
2023/06/05 12:32:41;;;;;;;4.30;3.40;;;28.90;99.90;;;;;;5119591;28;20487;-62
2023/06/05 12:35:19;;;;;;;4.07;3.67;;;28.30;99.90;;;;;;5117953;28;20556;-62
2023/06/05 12:37:47;;;;;;;4.47;4.10;;;28.90;99.90;;;;;;5118847;28;20956;-62
2023/06/05 12:40:17;;;;;;;4.13;3.83;;;29.40;99.90;;;;;;5117956;28;20498;-63
2023/06/05 12:42:44;;;;;;;4.50;4.10;;;29.10;99.90;;;;;;5118611;28;20473;-62
2023/06/05 12:45:12;;;;;;;3.60;3.30;;;29.60;99.90;;;;;;5118866;28;20557;-60
2023/06/05 12:47:40;;;;;;;4.10;3.70;;;30.00;99.90;;;;;;5117947;28;20464;-61
2023/06/05 12:50:11;;;;;;;4.57;4.07;;;30.10;99.90;;;;;;5118106;28;20451;-60
2023/06/05 12:52:39;;;;;;;4.27;3.87;;;29.60;99.90;;;;;;5126364;27;20494;-60
2023/06/05 12:55:08;;;;;;;4.77;3.70;;;28.90;99.90;;;;;;5138815;27;20621;-61
2023/06/05 12:57:36;;;;;;;4.00;3.67;;;29.30;99.90;;;;;;5130502;27;20809;-61
2023/06/05 13:00:11;;;;;;;8.73;3.70;;;29.30;99.90;;;;;;5114796;28;20912;-60
2023/06/05 13:02:38;;;;;;;4.00;3.63;;;29.50;99.90;;;;;;5114235;28;20470;-61